Time;durP1;ratioP1;P1;durP2;ratioP2;P2;SDS_P1;SDS_P2;PMS_P1;PMS_P2;Temp;Humidity;BMP_temperature;BMP_pressure;BME280_temperature;BME280_humidity;BME280_pressure;Samples;Min_cycle;Max_cycle;Signal;HPM_P1;HPM_P2
2022/01/20 00:01:59;;;;;;;7.05;3.53;;;;;;;-3.27;62.70;99134.97;4917435;29;20047;-79
2022/01/20 00:04:52;;;;;;;9.23;3.72;;;;;;;-3.21;62.83;99150.47;4933185;29;20042;-77
2022/01/20 00:07:31;;;;;;;8.27;3.15;;;;;;;-3.42;62.85;99116.63;4949613;29;20052;-77
2022/01/20 00:28:27;;;;;;;7.03;4.00;;;;;;;-2.98;63.22;99147.03;4945633;29;20113;-78
2022/01/20 00:31:05;;;;;;;7.28;3.17;;;;;;;-2.86;63.24;99157.63;4927377;29;20135;-78
2022/01/20 00:33:41;;;;;;;5.63;3.17;;;;;;;-2.94;63.47;99137.00;4914903;29;20455;-79
2022/01/20 00:38:37;;;;;;;7.07;3.25;;;;;;;-2.92;63.35;99127.75;4927609;29;20050;-78
2022/01/20 00:41:04;;;;;;;5.63;3.08;;;;;;;-2.75;63.06;99158.84;4929920;29;20047;-78
2022/01/20 00:43:32;;;;;;;6.18;3.35;;;;;;;-2.82;63.22;99144.19;4916448;29;20050;-79
2022/01/20 00:45:59;;;;;;;8.75;3.10;;;;;;;-2.85;63.22;99141.53;4944806;29;20063;-78
2022/01/20 00:48:25;;;;;;;7.35;3.17;;;;;;;-2.79;63.35;99140.88;4944708;29;20419;-78
2022/01/20 00:50:51;;;;;;;8.95;3.47;;;;;;;-2.67;63.30;99158.25;4948689;29;20039;-77
2022/01/20 00:53:19;;;;;;;6.35;3.03;;;;;;;-2.60;63.19;99152.56;4955460;29;20098;-79
2022/01/20 00:55:46;;;;;;;6.75;3.20;;;;;;;-2.57;63.29;99147.56;4933873;29;20142;-78
2022/01/20 00:58:14;;;;;;;8.82;3.53;;;;;;;-2.54;63.33;99142.59;4931187;29;20136;-77
2022/01/20 01:00:41;;;;;;;5.70;3.03;;;;;;;-2.48;63.30;99142.75;4928150;29;20047;-78
2022/01/20 01:03:06;;;;;;;6.70;3.22;;;;;;;-2.54;63.66;99123.88;4928214;29;20054;-77
2022/01/20 01:05:37;;;;;;;8.02;3.60;;;;;;;-2.62;63.34;99100.69;4911803;29;20091;-78
2022/01/20 01:08:07;;;;;;;6.57;2.80;;;;;;;-2.37;63.88;99135.47;4927590;29;20047;-78
2022/01/20 01:10:37;;;;;;;7.38;3.38;;;;;;;-2.48;63.59;99112.19;4899812;29;20048;-77
2022/01/20 01:13:09;;;;;;;9.15;3.22;;;;;;;-2.55;63.33;99096.66;4946169;29;20058;-78
2022/01/20 01:15:40;;;;;;;;;;;;;;;-2.44;63.08;99120.81;4922091;29;20039;-77
2022/01/20 01:23:39;;;;;;;7.43;3.30;;;;;;;-2.66;63.25;99074.25;4948326;29;20133;-79
2022/01/20 01:26:12;;;;;;;5.88;2.90;;;;;;;-2.68;63.34;99064.81;4905688;29;20070;-79
2022/01/20 01:28:40;;;;;;;7.78;3.58;;;;;;;-2.36;63.32;99110.88;4919331;29;20043;-78
2022/01/20 01:34:05;;;;;;;8.18;3.30;;;;;;;-2.53;63.36;99087.38;4925752;29;20682;-77
2022/01/20 01:36:46;;;;;;;7.35;3.28;;;;;;;-2.81;63.66;99044.06;4944659;29;20046;-78
2022/01/20 01:39:14;;;;;;;10.43;3.88;;;;;;;-2.38;63.73;99118.44;4931049;29;20066;-80
2022/01/20 01:41:41;;;;;;;9.55;3.00;;;;;;;-2.47;63.52;99103.72;4916416;29;20074;-78
2022/01/20 01:44:18;;;;;;;9.10;3.85;;;;;;;-2.36;63.77;99111.72;4913872;29;20058;-78
2022/01/20 01:46:46;;;;;;;9.10;3.90;;;;;;;-2.42;63.87;99093.69;4944733;29;20055;-79
2022/01/20 01:49:13;;;;;;;7.43;3.38;;;;;;;-2.32;63.64;99089.78;4938305;29;20054;-77
2022/01/20 01:51:39;;;;;;;8.32;4.07;;;;;;;-2.39;63.18;99075.09;4911452;29;20138;-77
2022/01/20 01:54:06;;;;;;;15.18;3.90;;;;;;;-2.38;63.80;99089.56;4943297;29;20143;-76
2022/01/20 01:56:35;;;;;;;10.52;3.45;;;;;;;-2.46;63.38;99094.41;4925548;29;20043;-77
2022/01/20 01:59:04;;;;;;;7.90;3.45;;;;;;;-2.45;63.49;99080.88;4927325;29;20229;-77
2022/01/20 02:01:57;;;;;;;11.82;3.72;;;;;;;-2.39;63.78;99100.56;4943664;29;20043;-77
2022/01/20 02:04:28;;;;;;;7.15;3.35;;;;;;;-2.51;63.30;99080.66;4922082;29;20056;-79
2022/01/20 02:20:56;;;;;;;5.45;3.13;;;;;;;-2.71;64.35;99073.25;4940739;28;20136;-78
2022/01/20 02:23:23;;;;;;;10.02;4.13;;;;;;;-2.78;63.98;99056.91;4941094;29;20440;-78
2022/01/20 02:25:50;;;;;;;7.25;3.10;;;;;;;-2.78;64.38;99045.81;4931260;29;20082;-78
2022/01/20 02:28:17;;;;;;;5.00;3.30;;;;;;;-2.68;64.58;99067.38;4943252;29;20043;-78
2022/01/20 02:30:43;;;;;;;7.75;3.50;;;;;;;-2.72;64.57;99056.22;4914191;29;20533;-79
2022/01/20 02:33:16;;;;;;;6.88;3.45;;;;;;;-2.70;64.84;99071.53;4926662;29;20061;-77
2022/01/20 02:35:46;;;;;;;9.85;3.67;;;;;;;-2.63;64.71;99074.34;4944865;29;20129;-77
2022/01/20 02:38:38;;;;;;;5.68;3.58;;;;;;;-2.78;65.13;99041.63;4944343;29;20763;-77
2022/01/20 02:46:53;;;;;;;8.77;3.45;;;;;;;-2.73;65.08;99057.88;4945409;29;20055;-78
2022/01/20 02:49:21;;;;;;;7.25;3.30;;;;;;;-2.60;65.38;99056.59;4943829;29;20102;-78
2022/01/20 02:51:53;;;;;;;9.73;3.55;;;;;;;-2.61;65.44;99038.75;4927653;29;20054;-77
2022/01/20 02:54:21;;;;;;;6.30;3.00;;;;;;;-2.54;65.18;99040.66;4942775;29;20407;-78
2022/01/20 02:56:47;;;;;;;6.70;3.60;;;;;;;-2.44;65.28;99037.56;4930109;29;20400;-79
2022/01/20 02:59:14;;;;;;;8.13;3.97;;;;;;;-2.57;65.16;98998.09;4932208;29;20047;-78
2022/01/20 03:01:46;;;;;;;8.48;3.20;;;;;;;-2.38;64.89;99016.50;4963542;28;20027;-79
2022/01/20 03:04:12;;;;;;;6.60;3.15;;;;;;;-2.61;65.17;98981.00;4958172;28;20043;-78
2022/01/20 03:06:38;;;;;;;7.70;3.60;;;;;;;-2.53;65.00;98988.88;4948562;29;20758;-78
2022/01/20 03:09:05;;;;;;;8.02;3.20;;;;;;;-2.44;65.33;99011.25;4942040;29;20562;-78
2022/01/20 03:11:32;;;;;;;8.30;3.22;;;;;;;-2.44;65.35;99008.69;4914711;29;20055;-77
2022/01/20 03:13:59;;;;;;;6.43;3.13;;;;;;;-2.66;65.61;98968.94;4950494;29;20043;-79
2022/01/20 03:16:25;;;;;;;6.28;3.45;;;;;;;-2.51;64.97;98989.78;4945973;29;20034;-80
2022/01/20 03:18:52;;;;;;;6.05;3.55;;;;;;;-2.51;65.29;98989.78;4922254;29;20036;-81
2022/01/20 03:21:19;;;;;;;6.35;3.55;;;;;;;-2.65;65.18;98966.47;4953347;29;20047;-79
2022/01/20 03:23:52;;;;;;;12.50;3.70;;;;;;;-2.49;65.24;98979.66;4948042;29;20053;-79
2022/01/20 03:26:19;;;;;;;7.05;3.80;;;;;;;-2.43;65.68;98983.25;4947932;29;20126;-78
2022/01/20 03:28:46;;;;;;;9.38;3.72;;;;;;;-2.44;65.48;98988.31;4941922;29;20121;-78
2022/01/20 03:31:12;;;;;;;9.60;4.43;;;;;;;-2.43;65.79;98982.41;4934412;29;20039;-79
2022/01/20 03:33:39;;;;;;;9.60;3.55;;;;;;;-3.00;65.58;98887.28;5249047;23;20106;-82
2022/01/20 03:36:06;;;;;;;7.05;3.60;;;;;;;-2.25;65.47;98997.34;4935011;29;20039;-75
2022/01/20 03:39:02;;;;;;;11.90;4.80;;;;;;;-2.23;65.81;98997.41;4916628;29;20425;-77
2022/01/20 03:41:29;;;;;;;9.07;3.30;;;;;;;-2.43;65.49;98969.66;4939835;29;20136;-81
2022/01/20 03:43:57;;;;;;;8.15;3.50;;;;;;;-2.29;65.81;98981.13;4936998;29;20051;-79
2022/01/20 03:46:23;;;;;;;8.32;3.95;;;;;;;-2.23;65.59;98989.78;4932992;29;20107;-80
2022/01/20 03:48:52;;;;;;;7.72;4.13;;;;;;;-2.25;65.26;98984.59;4951538;29;20122;-79
2022/01/20 03:51:21;;;;;;;10.23;3.75;;;;;;;-2.29;65.82;98975.13;4938310;29;20050;-79
2022/01/20 03:53:49;;;;;;;9.20;4.25;;;;;;;-2.18;65.58;98978.88;4933677;29;20047;-80
2022/01/20 03:56:19;;;;;;;7.28;3.95;;;;;;;-2.12;65.30;98986.72;4947633;29;20507;-79
2022/01/20 03:58:58;;;;;;;10.07;4.18;;;;;;;-2.22;65.57;98960.91;4937024;29;20039;-80
2022/01/20 04:01:24;;;;;;;10.30;3.90;;;;;;;-2.38;65.31;98939.19;4921693;29;20051;-79
2022/01/20 04:04:18;;;;;;;6.70;3.72;;;;;;;-2.19;65.45;98961.84;4947375;29;20051;-77
2022/01/20 04:06:57;;;;;;;6.78;3.50;;;;;;;-2.21;65.02;98957.53;4926344;29;20520;-78
2022/01/20 04:09:23;;;;;;;9.55;4.10;;;;;;;-2.23;65.68;98949.84;4925169;29;20051;-79
2022/01/20 04:11:50;;;;;;;10.73;4.38;;;;;;;-2.08;66.06;98974.03;4946405;29;20050;-77
2022/01/20 04:14:16;;;;;;;9.73;3.78;;;;;;;-2.06;64.90;98980.03;4917768;29;20577;-78
2022/01/20 04:17:03;;;;;;;10.48;4.00;;;;;;;-2.13;65.59;98963.72;4943157;29;20107;-79
2022/01/20 04:19:32;;;;;;;9.85;4.30;;;;;;;-2.10;65.86;98968.91;4923805;29;20039;-79
2022/01/20 04:22:00;;;;;;;11.40;4.47;;;;;;;-2.11;65.95;98959.53;4943284;29;20522;-80
2022/01/20 04:24:28;;;;;;;9.85;3.60;;;;;;;-2.05;66.21;98969.03;4936252;29;20082;-79
2022/01/20 04:26:55;;;;;;;7.70;4.13;;;;;;;-2.02;65.85;98964.00;4960119;28;20040;-80
2022/01/20 04:29:21;;;;;;;10.38;5.00;;;;;;;-2.15;65.74;98950.94;4934763;29;20051;-80
2022/01/20 04:31:49;;;;;;;10.23;4.40;;;;;;;-2.19;65.87;98943.13;4945215;28;20047;-79
2022/01/20 04:34:15;;;;;;;9.68;4.38;;;;;;;-2.24;66.04;98925.16;4909177;29;20174;-78
2022/01/20 04:36:44;;;;;;;8.68;4.03;;;;;;;-2.30;65.67;98923.31;4939942;29;20130;-78
2022/01/20 04:39:14;;;;;;;9.77;4.40;;;;;;;-2.31;66.00;98920.69;4941644;29;20758;-79
2022/01/20 04:41:41;;;;;;;7.43;3.97;;;;;;;-2.35;65.94;98919.75;4929488;28;20023;-79
2022/01/20 04:44:13;;;;;;;8.02;4.13;;;;;;;-2.22;66.26;98928.63;4940535;29;20043;-78
2022/01/20 04:46:48;;;;;;;9.40;4.32;;;;;;;-2.10;65.93;98932.34;4947013;29;20095;-80
2022/01/20 04:57:29;;;;;;;8.90;4.50;;;;;;;-2.05;66.64;98943.53;4940660;29;20190;-78
2022/01/20 04:59:55;;;;;;;9.15;4.00;;;;;;;-2.06;65.93;98934.16;4907417;29;20106;-79
2022/01/20 05:02:27;;;;;;;9.75;4.38;;;;;;;-2.16;66.53;98923.72;4941057;29;20047;-79
2022/01/20 05:04:56;;;;;;;13.02;5.03;;;;;;;-1.97;66.91;98937.81;4922969;29;20109;-78
2022/01/20 05:07:40;;;;;;;11.23;4.55;;;;;;;-2.01;66.45;98927.50;4939613;29;20578;-81
2022/01/20 05:10:10;;;;;;;8.45;4.72;;;;;;;-2.08;66.24;98917.94;4924214;29;20414;-79
2022/01/20 05:15:19;;;;;;;9.50;4.40;;;;;;;-2.00;66.25;98929.22;4938633;29;20043;-79
2022/01/20 05:17:46;;;;;;;10.93;4.38;;;;;;;-2.15;66.12;98901.59;4922216;29;20740;-80
2022/01/20 05:20:11;;;;;;;8.70;4.32;;;;;;;-2.12;66.32;98917.88;4938617;29;20194;-80
2022/01/20 05:22:38;;;;;;;9.18;4.80;;;;;;;-1.91;66.32;98939.69;4913112;29;20514;-81
2022/01/20 05:25:07;;;;;;;9.38;4.35;;;;;;;-1.99;66.38;98921.63;4939081;29;20039;-79
2022/01/20 05:27:32;;;;;;;11.88;4.47;;;;;;;-1.89;66.43;98938.06;4938536;29;20054;-79
2022/01/20 05:29:58;;;;;;;9.13;4.38;;;;;;;-2.07;66.59;98902.69;4940725;29;20039;-78
2022/01/20 05:32:26;;;;;;;8.40;4.35;;;;;;;-1.91;66.61;98934.59;4942762;29;20047;-79
2022/01/20 05:34:52;;;;;;;9.70;4.13;;;;;;;-1.92;66.71;98925.22;4928923;29;20106;-79
2022/01/20 05:37:18;;;;;;;8.77;4.72;;;;;;;-2.04;67.17;98890.03;4956663;28;20055;-81
2022/01/20 05:39:45;;;;;;;11.23;4.97;;;;;;;-1.88;66.52;98908.28;4910389;29;20051;-78
2022/01/20 05:42:14;;;;;;;11.63;4.97;;;;;;;-2.02;66.60;98893.50;4923254;29;20469;-80
2022/01/20 05:45:03;;;;;;;9.93;5.07;;;;;;;-1.95;66.85;98930.22;4939967;29;20707;-80
2022/01/20 05:47:31;;;;;;;10.25;4.70;;;;;;;-2.17;66.63;98891.38;4911892;29;20047;-79
2022/01/20 05:50:13;;;;;;;10.05;4.82;;;;;;;-2.21;66.95;98892.13;4939622;29;20050;-82
2022/01/20 05:52:43;;;;;;;12.20;5.15;;;;;;;-2.16;67.15;98900.75;4944930;29;20120;-80
2022/01/20 05:55:17;;;;;;;12.33;5.23;;;;;;;-2.10;67.16;98899.22;4912002;29;20165;-79
2022/01/20 05:57:43;;;;;;;;;;;;;;;-1.93;67.21;98923.47;4925509;29;20503;-80
2022/01/20 06:00:16;;;;;;;10.25;4.93;;;;;;;-1.98;66.89;98928.44;4940611;28;19918;-78
2022/01/20 06:05:32;;;;;;;15.27;5.78;;;;;;;-2.70;67.28;98801.53;4939409;29;20043;-79
2022/01/20 06:08:13;;;;;;;12.52;5.93;;;;;;;-3.04;67.23;98733.56;4911328;29;20495;-78
2022/01/20 06:10:43;;;;;;;10.30;4.78;;;;;;;-2.51;66.88;98836.91;4930734;29;20047;-78
2022/01/20 06:13:36;;;;;;;13.18;5.57;;;;;;;-3.29;66.88;98687.88;4945114;29;20050;-79
2022/01/20 06:16:23;;;;;;;13.05;5.78;;;;;;;-2.06;67.45;98881.47;4934250;29;20219;-78
2022/01/20 06:22:13;;;;;;;10.65;4.78;;;;;;;-2.05;67.48;98888.31;4946384;29;20068;-77
2022/01/20 06:24:46;;;;;;;13.07;5.57;;;;;;;-3.21;67.03;98694.06;4946422;29;20122;-77
2022/01/20 06:27:55;;;;;;;15.20;5.47;;;;;;;-2.09;67.71;98880.50;4951712;29;20137;-79
2022/01/20 06:30:31;;;;;;;13.88;5.40;;;;;;;-2.38;67.48;98858.50;4947618;29;20110;-79
2022/01/20 06:33:01;;;;;;;14.10;5.28;;;;;;;-2.27;66.90;98854.59;4929758;29;20115;-80
2022/01/20 06:35:35;;;;;;;13.95;6.03;;;;;;;-2.22;67.23;98870.00;4934310;29;20054;-79
2022/01/20 06:38:01;;;;;;;16.58;5.30;;;;;;;-2.39;67.53;98822.78;4954376;28;20075;-79
2022/01/20 06:40:28;;;;;;;14.23;5.03;;;;;;;-2.03;67.71;98880.69;4940815;29;20135;-78
2022/01/20 06:43:00;;;;;;;13.75;5.95;;;;;;;-2.12;67.60;98874.53;4948607;29;20047;-77
2022/01/20 06:45:47;;;;;;;;;;;;;;;-2.10;67.61;98878.81;4937064;29;20063;-79
2022/01/20 06:48:24;;;;;;;11.13;5.30;;;;;;;-2.28;67.54;98859.63;4952802;28;19957;-78
2022/01/20 06:51:20;;;;;;;14.82;6.28;;;;;;;-2.11;67.53;98880.47;4956988;29;20090;-78
2022/01/20 06:53:46;;;;;;;13.45;5.53;;;;;;;-2.31;67.75;98834.03;4940696;29;20032;-79
2022/01/20 06:56:12;;;;;;;13.57;6.18;;;;;;;-2.24;67.80;98841.03;4956562;29;20044;-77
2022/01/20 06:58:38;;;;;;;13.73;5.55;;;;;;;-2.03;67.48;98867.94;4950779;29;20058;-80
2022/01/20 07:01:07;;;;;;;12.40;5.13;;;;;;;-2.49;67.23;98793.66;4948553;29;20051;-79
2022/01/20 07:03:37;;;;;;;13.15;5.63;;;;;;;-2.67;67.34;98768.53;4938468;29;20051;-79
2022/01/20 07:06:07;;;;;;;15.73;5.30;;;;;;;-2.34;67.33;98845.03;4932299;29;20040;-79
2022/01/20 07:08:48;;;;;;;11.90;4.95;;;;;;;-2.47;67.93;98803.06;4952610;29;20051;-80
2022/01/20 07:11:14;;;;;;;12.35;5.13;;;;;;;-1.89;67.70;98892.16;4936459;29;20043;-79
2022/01/20 07:13:40;;;;;;;13.07;6.30;;;;;;;-1.84;67.89;98885.44;4950674;29;20045;-79
2022/01/20 07:16:10;;;;;;;13.95;5.45;;;;;;;-1.78;67.51;98889.88;4947363;29;20133;-78
2022/01/20 07:18:36;;;;;;;12.38;5.72;;;;;;;-1.75;68.04;98902.69;4947466;29;20043;-78
2022/01/20 07:21:06;;;;;;;10.82;4.68;;;;;;;-1.97;67.72;98845.16;4950427;29;20043;-76
2022/01/20 07:23:41;;;;;;;10.18;5.43;;;;;;;-2.21;67.21;98789.31;4946896;29;20058;-78
2022/01/20 07:27:11;;;;;;;;;;;;;;;;;;;;;
2022/01/20 07:30:07;;;;;;;13.70;5.28;;;;;;;-1.61;67.72;98852.00;4949118;29;20142;-79
2022/01/20 07:32:36;;;;;;;11.70;4.93;;;;;;;-2.13;67.40;98767.41;4955347;28;20035;-80
2022/01/20 07:35:10;;;;;;;14.77;6.80;;;;;;;-2.43;67.56;98713.13;4965516;28;20080;-77
2022/01/20 07:37:58;;;;;;;12.00;5.85;;;;;;;-1.55;67.94;98857.28;4961642;29;20039;-79
2022/01/20 07:40:48;;;;;;;12.13;5.70;;;;;;;-1.49;67.50;98868.47;4935074;29;20030;-79
2022/01/20 07:44:00;;;;;;;11.25;4.82;;;;;;;-1.46;66.74;98871.94;4961454;28;20027;-80
2022/01/20 07:47:08;;;;;;;10.57;4.65;;;;;;;-1.56;66.95;98863.22;4962085;28;20035;-79
2022/01/20 07:50:01;;;;;;;11.32;5.60;;;;;;;-2.96;67.04;98649.78;4942435;29;20024;-79
2022/01/20 07:52:34;;;;;;;11.05;5.40;;;;;;;-1.55;67.32;98864.09;4956311;23;20055;-78
2022/01/20 07:55:05;;;;;;;13.93;5.38;;;;;;;-2.43;67.56;98713.13;4932925;29;20016;-76
2022/01/20 07:57:34;;;;;;;12.60;5.90;;;;;;;-2.21;67.77;98776.56;4933068;29;20022;-78
2022/01/20 08:00:48;;;;;;;11.63;6.25;;;;;;;-1.49;67.52;98868.47;4943008;29;20036;-78
2022/01/20 08:03:20;;;;;;;11.32;4.85;;;;;;;-1.56;67.36;98875.97;4929960;28;20036;-79
2022/01/20 08:06:17;;;;;;;11.48;4.82;;;;;;;-2.38;67.23;98750.63;4934122;29;20051;-79
2022/01/20 08:08:47;;;;;;;14.18;5.13;;;;;;;-2.72;67.82;98680.09;4949090;28;20056;-80
2022/01/20 08:11:29;;;;;;;10.10;4.60;;;;;;;-2.82;67.30;98664.53;4948072;29;20067;-81
2022/01/20 08:17:27;;;;;;;13.00;4.90;;;;;;;-2.07;67.24;98797.28;4920598;29;20052;-78
2022/01/20 08:20:10;;;;;;;8.38;4.40;;;;;;;-2.81;67.61;98687.53;4919724;29;20103;-79
2022/01/20 08:23:00;;;;;;;8.45;3.97;;;;;;;-1.99;67.39;98816.19;4908207;29;20060;-77
2022/01/20 08:25:49;;;;;;;7.93;4.18;;;;;;;-1.91;67.43;98806.19;4884194;29;20043;-79
2022/01/20 08:28:21;;;;;;;12.50;4.70;;;;;;;-1.88;67.89;98768.03;4927220;29;20047;-77
2022/01/20 08:30:51;;;;;;;10.93;4.57;;;;;;;-1.80;67.91;98786.06;4917596;29;20040;-79
2022/01/20 08:33:17;;;;;;;8.30;4.78;;;;;;;-1.37;67.44;98845.78;4930623;29;20048;-79
2022/01/20 08:35:47;;;;;;;10.85;4.80;;;;;;;-1.45;67.53;98820.06;4918714;29;20047;-79
2022/01/20 08:38:24;;;;;;;8.93;4.18;;;;;;;-1.27;67.40;98842.63;4891021;29;20032;-79
2022/01/20 08:40:52;;;;;;;12.82;4.72;;;;;;;-1.30;67.33;98832.34;4929916;29;20071;-80
2022/01/20 08:43:21;;;;;;;10.48;4.72;;;;;;;-1.65;68.02;98768.56;4920913;29;20048;-79
2022/01/20 08:45:48;;;;;;;13.52;4.95;;;;;;;-1.25;67.22;98832.44;4913490;29;20595;-78
2022/01/20 08:48:16;;;;;;;12.63;4.35;;;;;;;-1.27;67.37;98821.34;4903918;29;20047;-77
2022/01/20 08:51:02;;;;;;;12.90;4.63;;;;;;;-2.03;67.24;98697.09;4917488;29;20044;-77
2022/01/20 08:53:47;;;;;;;12.48;5.10;;;;;;;-1.43;67.08;98812.44;4905456;29;20076;-79
2022/01/20 08:56:27;;;;;;;;;;;;;;;;;;;;;
2022/01/20 08:59:18;;;;;;;8.15;3.95;;;;;;;-2.16;67.07;98701.03;4915170;29;20611;-80
2022/01/20 09:01:44;;;;;;;8.80;4.53;;;;;;;-1.46;67.75;98786.88;4917219;29;20532;-77
2022/01/20 09:04:11;;;;;;;8.25;4.78;;;;;;;-1.32;67.87;98790.59;4914946;29;20107;-78
2022/01/20 09:06:53;;;;;;;8.40;4.22;;;;;;;-1.56;67.28;98758.59;4934377;29;20044;-79
2022/01/20 09:09:29;;;;;;;8.75;4.03;;;;;;;-1.40;67.69;98779.34;4912126;29;20582;-78
2022/01/20 09:17:33;;;;;;;9.55;4.47;;;;;;;-1.67;67.69;98760.88;4919181;29;20051;-78
2022/01/20 09:20:03;;;;;;;11.30;5.00;;;;;;;-1.67;67.30;98739.63;4914408;29;20052;-77
2022/01/20 09:22:31;;;;;;;7.47;3.75;;;;;;;-1.60;67.33;98745.72;4911986;29;20048;-80
2022/01/20 09:24:59;;;;;;;9.27;4.18;;;;;;;-1.44;67.44;98787.78;4910945;29;20051;-81
2022/01/20 09:27:26;;;;;;;11.85;4.90;;;;;;;-1.80;67.43;98712.97;4916911;29;20056;-79
2022/01/20 09:29:54;;;;;;;12.27;4.53;;;;;;;-1.69;67.14;98741.28;4904602;29;20047;-80
2022/01/20 09:35:39;;;;;;;7.03;4.07;;;;;;;-1.97;67.58;98675.16;4917075;29;20044;-81
2022/01/20 09:38:09;;;;;;;10.43;4.15;;;;;;;-1.67;67.73;98732.81;4916793;29;20040;-79
2022/01/20 09:40:37;;;;;;;8.53;4.27;;;;;;;-1.70;67.43;98731.91;4918823;29;20068;-80
2022/01/20 09:43:07;;;;;;;7.60;4.53;;;;;;;-1.67;67.81;98737.91;4913070;29;20298;-79
2022/01/20 09:45:38;;;;;;;9.27;4.90;;;;;;;-1.90;67.40;98694.03;4931436;28;20111;-78
2022/01/20 09:48:10;;;;;;;10.30;4.32;;;;;;;-2.11;67.53;98648.47;4924561;29;20044;-79
2022/01/20 09:50:55;;;;;;;9.45;4.00;;;;;;;-1.60;67.70;98718.50;4919806;29;20167;-79
2022/01/20 09:53:43;;;;;;;10.02;4.13;;;;;;;-1.39;67.38;98745.34;4923727;29;20060;-80
2022/01/20 09:56:38;;;;;;;9.23;4.25;;;;;;;-1.38;67.31;98744.50;4913362;29;20104;-79
2022/01/20 09:59:05;;;;;;;8.15;4.05;;;;;;;-1.40;67.67;98726.63;4929181;29;20048;-78
2022/01/20 10:01:39;;;;;;;8.73;4.43;;;;;;;-1.29;67.69;98747.28;4895388;29;20082;-81
2022/01/20 10:04:18;;;;;;;7.13;3.70;;;;;;;-1.27;67.06;98742.19;4941782;29;20095;-79
2022/01/20 10:06:59;;;;;;;8.90;4.70;;;;;;;-1.34;67.14;98741.19;4901558;29;20036;-79
2022/01/20 10:09:27;;;;;;;9.05;4.00;;;;;;;-1.40;67.78;98716.41;4903071;29;20044;-79
2022/01/20 10:12:16;;;;;;;8.18;4.22;;;;;;;-1.25;67.65;98721.00;4903759;29;20055;-78
2022/01/20 10:18:14;;;;;;;10.30;4.07;;;;;;;-1.71;67.63;98631.53;4993917;23;20050;-81
2022/01/20 10:20:56;;;;;;;11.02;4.60;;;;;;;-1.12;66.96;98723.78;4955321;28;20038;-79
2022/01/20 10:23:47;;;;;;;10.88;5.25;;;;;;;-1.27;67.03;98721.78;4989486;28;20053;-81
2022/01/20 10:26:31;;;;;;;8.95;4.90;;;;;;;-1.44;66.71;98713.78;4968347;28;20051;-80
2022/01/20 10:29:09;;;;;;;10.02;5.18;;;;;;;-1.54;67.69;98702.47;4945226;28;20039;-79
2022/01/20 10:31:35;;;;;;;11.43;5.50;;;;;;;-1.32;67.81;98724.22;4960517;28;20057;-80
2022/01/20 10:34:02;;;;;;;11.85;5.25;;;;;;;-1.34;67.66;98725.03;4959563;28;20038;-81
2022/01/20 10:36:30;;;;;;;11.02;4.85;;;;;;;-1.46;66.85;98705.22;4957580;28;20050;-79
2022/01/20 10:39:16;;;;;;;10.32;5.63;;;;;;;-1.77;67.82;98662.03;4960927;28;20046;-77
2022/01/20 10:41:42;;;;;;;11.10;5.15;;;;;;;-1.57;67.55;98707.53;4960578;28;20727;-80
2022/01/20 10:44:17;;;;;;;9.35;4.72;;;;;;;-1.52;67.66;98722.09;4958811;28;20070;-79
2022/01/20 10:46:58;;;;;;;11.65;5.85;;;;;;;-1.54;67.48;98723.75;4957183;28;20061;-80
2022/01/20 10:49:31;;;;;;;13.52;6.07;;;;;;;-1.74;67.41;98674.81;4963303;28;20061;-79
2022/01/20 10:52:04;;;;;;;11.57;5.50;;;;;;;-1.87;68.01;98634.56;4972989;28;20384;-77
2022/01/20 10:54:48;;;;;;;10.52;5.07;;;;;;;-1.30;67.70;98725.13;4966820;28;20038;-80
2022/01/20 10:57:33;;;;;;;10.35;5.18;;;;;;;-1.35;67.53;98703.75;4971305;28;20038;-80
2022/01/20 11:00:09;;;;;;;12.55;5.53;;;;;;;-1.49;67.67;98688.13;4962744;28;20485;-79
2022/01/20 11:02:51;;;;;;;7.68;4.43;;;;;;;-1.26;67.15;98706.50;4960036;28;20042;-78
2022/01/20 11:05:19;;;;;;;10.20;4.93;;;;;;;-1.35;67.40;98698.63;4978441;28;20034;-80
2022/01/20 11:07:46;;;;;;;9.10;5.18;;;;;;;-1.42;67.84;98661.03;4949232;28;20046;-80
2022/01/20 11:10:13;;;;;;;11.75;5.10;;;;;;;-1.21;67.00;98704.03;4951009;28;20061;-78
2022/01/20 11:12:46;;;;;;;10.77;5.57;;;;;;;-1.44;67.28;98661.03;4983613;28;20042;-79
2022/01/20 11:15:21;;;;;;;10.35;5.55;;;;;;;-1.27;67.32;98686.91;4970695;28;20066;-78
2022/01/20 11:17:53;;;;;;;8.15;4.65;;;;;;;-1.39;67.72;98682.41;4968832;28;20041;-80
2022/01/20 11:20:22;;;;;;;14.57;4.63;;;;;;;-1.50;67.31;98670.25;4909738;28;20761;-79
2022/01/20 11:22:51;;;;;;;9.90;4.75;;;;;;;-1.32;67.26;98693.59;4951671;28;20046;-79
2022/01/20 11:25:21;;;;;;;9.25;5.28;;;;;;;-1.31;67.78;98702.97;4923950;28;20054;-80
2022/01/20 11:28:08;;;;;;;9.90;4.05;;;;;;;-1.40;67.37;98690.88;4932009;28;20133;-80
2022/01/20 11:30:59;;;;;;;9.80;4.75;;;;;;;-1.66;67.36;98667.38;4934480;28;20046;-78
2022/01/20 11:33:52;;;;;;;10.40;4.90;;;;;;;-1.54;67.29;98687.16;4923156;28;20070;-79
2022/01/20 11:36:31;;;;;;;8.70;4.60;;;;;;;-1.42;67.95;98696.78;4970924;28;20039;-80
2022/01/20 11:39:05;;;;;;;10.82;5.03;;;;;;;-1.54;67.49;98659.09;4950762;28;20041;-79
2022/01/20 11:41:46;;;;;;;13.25;5.28;;;;;;;-1.31;68.04;98689.34;5582672;23;20046;-79
2022/01/20 11:44:15;;;;;;;10.40;5.70;;;;;;;-1.18;67.77;98700.66;4917621;29;20051;-80
2022/01/20 11:46:44;;;;;;;9.65;4.60;;;;;;;-1.52;67.14;98665.09;4949470;28;20099;-80
2022/01/20 11:49:13;;;;;;;13.65;6.95;;;;;;;-1.28;67.30;98695.41;4929871;29;20051;-76
2022/01/20 11:51:44;;;;;;;11.07;5.15;;;;;;;-1.21;67.72;98707.44;4929545;29;20425;-79
2022/01/20 11:54:14;;;;;;;12.82;5.68;;;;;;;-1.36;67.13;98656.06;4936753;29;20078;-80
2022/01/20 11:56:46;;;;;;;9.05;4.38;;;;;;;-1.33;67.25;98670.59;4917373;29;20039;-80
2022/01/20 11:59:15;;;;;;;11.97;5.40;;;;;;;-1.73;66.76;98637.44;4939965;29;20054;-78
2022/01/20 12:01:49;;;;;;;10.85;5.75;;;;;;;-1.38;67.43;98684.13;4935333;29;20103;-78
2022/01/20 12:04:16;;;;;;;10.57;5.35;;;;;;;-1.92;67.36;98586.03;4966174;29;20087;-78
2022/01/20 12:06:50;;;;;;;11.38;4.90;;;;;;;-1.41;67.38;98663.63;4921639;29;20050;-81
2022/01/20 12:09:28;;;;;;;9.50;4.70;;;;;;;-1.46;67.42;98661.84;4955794;28;20047;-77
2022/01/20 12:11:54;;;;;;;10.25;4.60;;;;;;;-1.47;67.83;98657.56;4907586;29;20090;-78
2022/01/20 12:14:35;;;;;;;11.32;5.57;;;;;;;-1.42;67.78;98672.13;4933741;29;20046;-78
2022/01/20 12:17:05;;;;;;;9.98;4.60;;;;;;;-1.67;67.33;98614.63;4944258;29;20050;-79
2022/01/20 12:19:31;;;;;;;9.98;4.90;;;;;;;-1.67;67.08;98617.16;4922843;29;20391;-79
2022/01/20 12:21:57;;;;;;;9.77;4.85;;;;;;;-1.47;67.72;98658.41;4932578;29;20047;-80
2022/01/20 12:24:23;;;;;;;10.50;4.90;;;;;;;-1.31;67.59;98689.34;4937604;29;20051;-77
2022/01/20 12:26:49;;;;;;;11.20;5.00;;;;;;;-1.38;67.78;98685.81;4953391;29;20047;-78
2022/01/20 12:29:15;;;;;;;8.32;4.93;;;;;;;-1.37;67.79;98667.09;4940946;29;20101;-79
2022/01/20 12:31:50;;;;;;;14.00;5.80;;;;;;;-1.19;67.39;98694.72;4956481;29;20047;-79
2022/01/20 12:34:16;;;;;;;9.27;4.93;;;;;;;-1.27;67.56;98668.16;4956094;29;20059;-77
2022/01/20 12:36:53;;;;;;;9.50;4.53;;;;;;;-1.32;67.17;98660.41;4941575;29;20039;-79
2022/01/20 12:39:28;;;;;;;11.48;4.90;;;;;;;-1.37;67.03;98655.22;4949818;29;20053;-80
2022/01/20 12:41:59;;;;;;;11.20;5.45;;;;;;;-1.45;67.42;98643.97;4953673;29;20051;-77
2022/01/20 12:45:00;;;;;;;11.07;5.40;;;;;;;-1.36;67.39;98668.84;4951520;29;20035;-79
2022/01/20 12:47:39;;;;;;;14.00;7.15;;;;;;;-1.36;67.19;98676.50;4945017;29;20043;-80
2022/01/20 12:50:05;;;;;;;10.73;5.38;;;;;;;-1.50;67.73;98637.06;4924629;29;20044;-78
2022/01/20 12:52:31;;;;;;;11.65;5.20;;;;;;;-1.32;67.67;98651.91;4932835;29;20039;-78
2022/01/20 12:55:01;;;;;;;11.35;5.20;;;;;;;-1.43;66.57;98644.00;4965087;29;20053;-78
2022/01/20 12:57:29;;;;;;;12.27;5.63;;;;;;;-1.43;67.72;98636.34;4937536;29;20058;-80
2022/01/20 12:59:57;;;;;;;12.52;5.88;;;;;;;-1.50;67.07;98632.81;4934920;29;20047;-79
2022/01/20 13:02:35;;;;;;;11.63;5.15;;;;;;;-2.08;67.10;98571.19;4906264;29;20088;-79
2022/01/20 13:05:32;;;;;;;9.38;4.55;;;;;;;-1.48;67.57;98672.00;4902985;29;20178;-78
2022/01/20 13:08:00;;;;;;;10.10;4.57;;;;;;;-2.40;67.20;98554.34;4884439;29;20048;-80
2022/01/20 13:11:15;;;;;;;13.07;5.88;;;;;;;-1.58;67.52;98665.81;4905374;29;20051;-79
2022/01/20 13:13:54;;;;;;;11.20;5.25;;;;;;;-2.43;67.87;98524.56;4908390;29;20048;-81
2022/01/20 13:16:20;;;;;;;9.82;4.88;;;;;;;-2.29;67.35;98560.56;4873384;29;20044;-78
2022/01/20 13:18:57;;;;;;;12.00;5.25;;;;;;;-1.81;67.54;98621.97;4907963;29;20047;-79
2022/01/20 13:21:35;;;;;;;14.25;5.45;;;;;;;-2.44;67.60;98502.47;4891122;29;20638;-78
2022/01/20 13:24:06;;;;;;;9.13;5.10;;;;;;;-2.35;67.46;98524.75;4898474;29;20047;-76